Time;durP1;ratioP1;P1;durP2;ratioP2;P2;SDS_P1;SDS_P2;PMS_P1;PMS_P2;Temp;Humidity;BMP_temperature;BMP_pressure;BME280_temperature;BME280_humidity;BME280_pressure;Samples;Min_cycle;Max_cycle;Signal;HPM_P1;HPM_P2
2023/04/14 00:00:27;;;;;;;11.55;3.85;;;;;;;6.68;72.06;100784.94;4998413;28;20070;-92
2023/04/14 00:02:55;;;;;;;8.70;3.72;;;;;;;6.68;72.63;100778.00;4996396;28;20039;-92
2023/04/14 00:05:21;;;;;;;10.20;3.80;;;;;;;6.63;72.79;100783.94;4998220;28;20119;-92
2023/04/14 00:07:46;;;;;;;8.68;4.00;;;;;;;6.53;73.18;100775.84;4980173;28;20066;-92
2023/04/14 00:10:11;;;;;;;6.50;3.83;;;;;;;6.65;73.09;100790.16;4996078;28;20040;-92
2023/04/14 00:12:37;;;;;;;8.00;4.05;;;;;;;6.66;73.02;100794.53;4996483;28;20466;-92
2023/04/14 00:15:02;;;;;;;7.57;3.90;;;;;;;6.66;73.14;100792.78;4980389;28;20035;-92
2023/04/14 00:17:29;;;;;;;6.95;3.90;;;;;;;6.66;73.35;100792.78;4996945;28;20038;-91
2023/04/14 00:19:54;;;;;;;6.47;3.60;;;;;;;6.64;72.55;100794.50;4997378;28;20092;-92
2023/04/14 00:22:20;;;;;;;8.98;3.72;;;;;;;6.60;73.10;100792.66;4997639;28;20458;-92
2023/04/14 00:24:46;;;;;;;9.40;4.05;;;;;;;6.48;73.27;100795.84;4997706;28;20388;-93
2023/04/14 00:27:12;;;;;;;10.00;3.80;;;;;;;6.36;73.24;100797.25;4997302;28;20450;-91
2023/04/14 00:29:40;;;;;;;12.40;3.80;;;;;;;6.26;73.68;100794.38;4997225;28;20092;-92
2023/04/14 00:32:06;;;;;;;10.35;4.07;;;;;;;6.12;74.53;100795.72;4997334;28;20088;-91
2023/04/14 00:34:31;;;;;;;9.75;3.53;;;;;;;6.08;75.08;100792.97;5012100;28;20417;-92
2023/04/14 00:36:57;;;;;;;6.47;3.65;;;;;;;6.11;74.71;100791.31;4997102;28;20089;-92
2023/04/14 00:39:22;;;;;;;6.15;3.10;;;;;;;6.18;74.70;100798.53;4996154;28;20031;-91
2023/04/14 00:41:48;;;;;;;6.88;3.53;;;;;;;6.23;74.45;100801.28;4996931;28;20084;-92
2023/04/14 00:44:13;;;;;;;8.90;3.60;;;;;;;6.29;74.12;100798.81;4979594;28;20041;-92
2023/04/14 00:46:40;;;;;;;8.50;4.10;;;;;;;6.27;73.33;100795.25;4996151;28;20030;-91
2023/04/14 00:49:06;;;;;;;9.90;3.95;;;;;;;6.30;73.29;100802.34;4997191;28;20462;-92
2023/04/14 00:51:32;;;;;;;10.65;4.07;;;;;;;6.40;73.64;100815.75;5011931;28;20134;-92
2023/04/14 00:54:01;;;;;;;6.53;3.60;;;;;;;6.42;72.88;100808.78;5011692;28;20093;-91
2023/04/14 00:56:28;;;;;;;9.65;4.15;;;;;;;6.42;72.41;100819.28;4995444;28;20027;-92
2023/04/14 00:58:54;;;;;;;8.75;3.38;;;;;;;6.44;72.55;100809.72;4996760;28;20030;-91
2023/04/14 01:01:21;;;;;;;10.50;4.18;;;;;;;6.42;72.06;100819.28;4996530;28;20113;-91
2023/04/14 01:03:46;;;;;;;8.10;3.63;;;;;;;6.38;72.45;100819.16;4994361;28;20030;-91
2023/04/14 01:06:12;;;;;;;10.90;3.97;;;;;;;6.37;72.19;100818.28;4996553;28;20480;-92
2023/04/14 01:08:37;;;;;;;10.20;4.20;;;;;;;6.34;72.31;100814.66;4996814;28;20566;-92
2023/04/14 01:11:19;;;;;;;10.25;4.03;;;;;;;6.44;73.05;100830.72;4995102;28;20383;-92
2023/04/14 01:14:09;;;;;;;10.07;3.70;;;;;;;6.49;72.61;100823.84;4995216;28;20035;-92
2023/04/14 01:16:40;;;;;;;8.68;3.60;;;;;;;6.44;72.53;100817.59;4997039;28;20058;-93
2023/04/14 01:19:35;;;;;;;9.95;3.75;;;;;;;6.45;71.90;100816.75;4996389;28;20034;-92
2023/04/14 01:22:05;;;;;;;9.20;3.45;;;;;;;6.33;72.67;100808.53;4967746;28;20057;-92
2023/04/14 01:24:40;;;;;;;8.18;3.20;;;;;;;6.37;72.58;100820.00;4996357;28;20047;-93
2023/04/14 01:27:39;;;;;;;8.20;3.67;;;;;;;6.37;72.58;100820.91;4996534;28;20450;-92
2023/04/14 01:30:23;;;;;;;8.20;3.40;;;;;;;6.23;72.54;100824.88;4988192;28;20044;-93
2023/04/14 01:32:55;;;;;;;6.40;3.22;;;;;;;5.98;73.55;100818.94;4995015;28;20030;-93
2023/04/14 01:35:32;;;;;;;6.70;3.15;;;;;;;6.03;73.76;100814.72;4996417;28;20034;-93
2023/04/14 01:38:05;;;;;;;7.47;3.10;;;;;;;6.15;74.28;100819.41;4996029;28;20034;-91
2023/04/14 01:40:32;;;;;;;8.15;3.30;;;;;;;6.25;73.89;100816.22;4996001;28;20054;-92
2023/04/14 01:43:07;;;;;;;7.30;2.90;;;;;;;6.19;73.28;100817.78;4996023;28;20136;-92
2023/04/14 01:45:40;;;;;;;9.75;3.50;;;;;;;6.20;73.11;100824.78;4995534;28;20026;-93
2023/04/14 01:48:06;;;;;;;8.27;3.03;;;;;;;6.00;73.10;100819.00;4996154;28;20374;-92
2023/04/14 01:50:34;;;;;;;6.65;3.13;;;;;;;5.92;74.29;100831.00;4994674;28;20084;-92
2023/04/14 01:53:03;;;;;;;10.48;3.60;;;;;;;5.81;74.90;100828.00;4995642;28;20022;-92
2023/04/14 01:55:30;;;;;;;9.27;3.08;;;;;;;5.69;74.91;100832.88;4996066;28;20429;-92
2023/04/14 01:57:57;;;;;;;9.10;3.33;;;;;;;5.62;76.56;100833.56;4994634;28;20065;-92
2023/04/14 02:00:23;;;;;;;8.27;3.13;;;;;;;5.54;75.95;100825.47;4995171;28;20374;-92
2023/04/14 02:02:53;;;;;;;7.13;2.70;;;;;;;5.63;75.71;100835.34;4995766;28;20030;-92
2023/04/14 02:05:21;;;;;;;8.05;2.97;;;;;;;5.64;75.80;100840.63;4995497;28;20446;-92
2023/04/14 02:07:47;;;;;;;8.32;3.03;;;;;;;5.76;75.75;100843.59;4995257;28;20155;-93
2023/04/14 02:10:16;;;;;;;8.68;3.45;;;;;;;5.74;75.04;100834.81;4995083;28;20038;-93
2023/04/14 02:12:43;;;;;;;7.15;2.97;;;;;;;5.78;75.31;100825.28;4994546;28;20037;-93
2023/04/14 02:15:12;;;;;;;6.25;2.97;;;;;;;5.77;74.57;100832.28;4993024;28;20038;-93
2023/04/14 02:17:39;;;;;;;7.72;3.35;;;;;;;5.71;75.49;100831.22;4995208;28;20112;-93
2023/04/14 02:20:11;;;;;;;6.97;2.75;;;;;;;5.65;76.29;100833.63;4995767;28;20084;-93
2023/04/14 02:22:39;;;;;;;8.80;3.20;;;;;;;5.69;76.77;100838.13;4995332;28;20085;-93
2023/04/14 02:25:05;;;;;;;9.25;3.20;;;;;;;5.64;76.28;100831.88;4993758;28;20137;-93
2023/04/14 02:27:45;;;;;;;8.10;3.13;;;;;;;5.67;76.28;100834.59;4994281;28;20031;-93
2023/04/14 02:30:15;;;;;;;6.25;3.13;;;;;;;5.69;75.98;100835.50;4995136;28;20026;-93
2023/04/14 02:32:48;;;;;;;5.88;2.75;;;;;;;5.83;77.32;100844.69;4994706;28;20030;-93
2023/04/14 02:35:17;;;;;;;7.68;3.30;;;;;;;5.90;77.32;100843.13;4995316;28;20026;-93
2023/04/14 02:37:47;;;;;;;6.60;2.90;;;;;;;6.01;76.95;100855.75;4994680;28;20528;-93
2023/04/14 02:40:20;;;;;;;5.95;2.95;;;;;;;6.09;75.53;100849.84;4995368;28;20089;-93
2023/04/14 02:42:49;;;;;;;6.72;2.80;;;;;;;6.12;74.93;100850.81;4995520;28;20061;-93
2023/04/14 02:45:21;;;;;;;8.82;3.20;;;;;;;6.12;74.71;100857.78;4995149;28;20085;-93
2023/04/14 02:47:51;;;;;;;8.13;2.93;;;;;;;6.01;75.31;100860.13;4995054;28;20114;-93
2023/04/14 02:50:19;;;;;;;8.52;3.20;;;;;;;5.88;75.01;100858.84;5010228;28;20030;-93
2023/04/14 02:52:50;;;;;;;6.55;2.97;;;;;;;5.82;75.41;100860.38;4994384;28;20034;-92
2023/04/14 02:55:17;;;;;;;7.03;3.20;;;;;;;5.69;75.19;100833.78;4994310;28;20022;-92
2023/04/14 02:57:43;;;;;;;9.68;3.20;;;;;;;5.75;76.30;100856.69;4999022;28;20068;-93
2023/04/14 03:00:10;;;;;;;12.43;3.53;;;;;;;5.61;75.90;100848.41;4994771;28;20062;-92
2023/04/14 03:02:37;;;;;;;9.98;3.55;;;;;;;5.57;76.14;100856.09;4994873;28;20431;-93
2023/04/14 03:05:04;;;;;;;9.27;3.20;;;;;;;5.62;76.87;100859.78;4994428;28;20482;-93
2023/04/14 03:07:30;;;;;;;6.68;3.05;;;;;;;5.67;76.98;100868.66;4994200;28;20481;-94
2023/04/14 03:09:56;;;;;;;9.43;3.20;;;;;;;5.64;76.99;100874.69;4994803;28;20054;-92
2023/04/14 03:12:24;;;;;;;9.90;3.53;;;;;;;5.60;76.73;100880.69;4994541;28;20034;-94
2023/04/14 03:14:50;;;;;;;7.63;3.30;;;;;;;5.59;76.67;100872.78;4993839;28;20034;-93
2023/04/14 03:17:19;;;;;;;8.07;3.20;;;;;;;5.62;76.92;100863.28;4995153;28;20081;-93
2023/04/14 03:19:47;;;;;;;6.50;2.90;;;;;;;5.67;77.09;100872.19;4994474;28;20482;-92
2023/04/14 03:22:14;;;;;;;8.68;3.30;;;;;;;5.60;76.22;100858.81;4993532;28;20038;-93
2023/04/14 03:24:41;;;;;;;8.70;3.17;;;;;;;5.62;76.25;100873.78;5003907;28;20064;-92
2023/04/14 03:27:29;;;;;;;8.45;2.95;;;;;;;5.59;76.36;100857.06;5016052;28;20047;-91
2023/04/14 03:29:57;;;;;;;7.53;3.20;;;;;;;5.64;76.21;100871.19;5015582;28;20026;-92
2023/04/14 03:32:25;;;;;;;9.93;3.28;;;;;;;5.52;76.06;100862.13;5013638;28;20026;-91
2023/04/14 03:34:53;;;;;;;7.85;3.78;;;;;;;5.32;77.08;100878.03;5011678;28;20061;-92
2023/04/14 03:37:23;;;;;;;9.02;3.50;;;;;;;5.21;77.53;100868.09;5010619;28;20028;-91
2023/04/14 03:39:50;;;;;;;8.85;3.22;;;;;;;5.15;77.55;100862.66;5010977;28;20072;-93
2023/04/14 03:42:18;;;;;;;11.90;3.40;;;;;;;5.19;77.37;100859.31;4997541;28;20088;-91
2023/04/14 03:44:50;;;;;;;10.50;3.42;;;;;;;5.27;77.42;100864.78;4993127;28;20053;-93
2023/04/14 03:47:17;;;;;;;8.27;3.13;;;;;;;5.25;77.43;100866.47;4993302;28;20506;-92
2023/04/14 03:49:46;;;;;;;9.00;3.28;;;;;;;5.09;78.57;100877.25;4994075;28;20394;-93
2023/04/14 03:52:15;;;;;;;9.13;3.33;;;;;;;4.92;78.56;100884.56;4994436;28;20058;-92
2023/04/14 03:54:42;;;;;;;8.88;3.83;;;;;;;4.78;79.14;100881.47;5009692;28;20044;-92
2023/04/14 03:57:10;;;;;;;10.43;3.45;;;;;;;4.75;80.75;100879.66;4994475;28;20038;-92
2023/04/14 03:59:37;;;;;;;12.50;3.45;;;;;;;4.69;81.24;100875.91;4993975;28;20109;-92
2023/04/14 04:02:05;;;;;;;12.35;3.65;;;;;;;4.76;80.85;100868.34;4993806;28;20081;-93
2023/04/14 04:04:31;;;;;;;7.80;3.20;;;;;;;4.85;80.68;100866.88;4993957;28;20039;-92
2023/04/14 04:06:57;;;;;;;8.95;3.00;;;;;;;4.93;79.99;100875.88;4993962;28;20368;-93
2023/04/14 04:09:24;;;;;;;9.07;3.53;;;;;;;4.93;79.33;100882.00;4993571;28;20398;-92
2023/04/14 04:11:55;;;;;;;10.32;3.25;;;;;;;4.93;79.72;100874.16;4992444;28;20425;-93
2023/04/14 04:14:22;;;;;;;6.75;3.40;;;;;;;4.97;79.12;100883.00;4993408;28;20030;-93
2023/04/14 04:16:49;;;;;;;8.38;3.28;;;;;;;5.05;79.14;100893.72;4992600;28;20046;-92
2023/04/14 04:19:19;;;;;;;8.07;3.33;;;;;;;5.03;78.61;100894.56;4993566;28;20038;-92
2023/04/14 04:21:51;;;;;;;7.30;3.05;;;;;;;4.96;78.97;100894.28;4993473;28;20390;-93
2023/04/14 04:24:19;;;;;;;7.10;3.30;;;;;;;4.93;78.91;100894.22;4993826;28;20042;-91
2023/04/14 04:26:45;;;;;;;8.25;3.28;;;;;;;4.86;78.94;100897.44;4992407;28;20121;-92
2023/04/14 04:29:11;;;;;;;9.85;3.35;;;;;;;4.84;79.87;100889.56;4976623;28;20121;-91
2023/04/14 04:31:38;;;;;;;8.13;3.35;;;;;;;4.81;79.69;100885.94;4993009;28;20438;-92
2023/04/14 04:34:04;;;;;;;11.07;3.30;;;;;;;4.70;80.13;100890.78;4993474;28;20034;-92
2023/04/14 04:36:31;;;;;;;8.15;3.20;;;;;;;4.67;80.59;100891.59;4992246;28;20042;-92
2023/04/14 04:38:57;;;;;;;8.75;3.22;;;;;;;4.56;80.48;100885.06;4994797;28;20033;-93
2023/04/14 04:41:27;;;;;;;6.40;3.20;;;;;;;4.58;81.51;100906.03;4996341;28;20030;-94
2023/04/14 04:43:53;;;;;;;10.40;3.28;;;;;;;4.53;81.50;100887.56;4997587;28;20403;-93
2023/04/14 04:46:47;;;;;;;9.77;3.45;;;;;;;4.54;81.00;100899.84;4995548;28;20030;-92
2023/04/14 04:49:12;;;;;;;10.70;3.40;;;;;;;4.50;81.74;100879.63;4995836;28;20034;-92
2023/04/14 04:51:41;;;;;;;7.03;3.50;;;;;;;4.56;81.29;100890.31;4997135;28;20374;-93
2023/04/14 04:54:07;;;;;;;10.27;3.70;;;;;;;4.56;81.92;100878.94;4996029;28;20078;-91
2023/04/14 04:56:32;;;;;;;12.73;3.33;;;;;;;4.54;82.15;100871.06;4995688;28;20039;-94
2023/04/14 04:58:58;;;;;;;9.07;3.63;;;;;;;4.64;81.39;100890.56;4996773;28;20034;-94
2023/04/14 05:01:23;;;;;;;7.78;3.40;;;;;;;4.66;81.35;100887.16;4996811;28;20069;-94
2023/04/14 05:03:49;;;;;;;10.30;3.58;;;;;;;4.70;81.30;100881.19;4996639;28;20042;-94
2023/04/14 05:06:15;;;;;;;9.85;3.53;;;;;;;4.73;81.94;100883.03;4996547;28;20467;-92
2023/04/14 05:08:43;;;;;;;6.88;3.13;;;;;;;4.65;81.52;100879.25;4995217;28;20411;-93
2023/04/14 05:11:08;;;;;;;7.03;3.55;;;;;;;4.58;81.96;100879.88;4996303;28;20038;-94
2023/04/14 05:13:36;;;;;;;6.75;3.22;;;;;;;4.67;81.66;100896.81;4979231;28;20486;-94
2023/04/14 05:16:07;;;;;;;6.78;3.00;;;;;;;4.79;82.22;100891.09;4996456;28;20074;-94
2023/04/14 05:18:36;;;;;;;6.97;3.25;;;;;;;4.82;80.97;100885.09;4995467;28;20038;-94
2023/04/14 05:21:06;;;;;;;7.85;3.22;;;;;;;4.85;81.22;100883.47;4996431;28;20030;-93
2023/04/14 05:23:32;;;;;;;9.57;3.50;;;;;;;4.88;81.56;100886.19;4996449;28;20462;-94
2023/04/14 05:25:59;;;;;;;11.38;3.65;;;;;;;4.95;81.53;100880.31;4996281;28;20564;-93
2023/04/14 05:28:24;;;;;;;9.60;3.72;;;;;;;5.08;81.67;100881.63;4996075;28;20467;-93
2023/04/14 05:30:49;;;;;;;9.95;3.80;;;;;;;5.22;81.73;100890.84;4964023;28;20034;-94
2023/04/14 05:33:15;;;;;;;10.25;3.85;;;;;;;5.20;81.06;100878.53;4996092;28;20118;-93
2023/04/14 05:35:43;;;;;;;8.77;3.33;;;;;;;5.38;81.37;100892.22;4995182;28;20088;-94
2023/04/14 05:38:09;;;;;;;11.20;3.75;;;;;;;5.47;80.77;100895.13;4996086;28;20034;-93
2023/04/14 05:40:34;;;;;;;9.75;3.60;;;;;;;5.55;79.96;100889.25;4996003;28;20077;-94
2023/04/14 05:43:00;;;;;;;7.97;3.42;;;;;;;5.63;80.23;100887.75;4996562;28;20113;-94
2023/04/14 05:45:26;;;;;;;8.85;4.03;;;;;;;5.57;80.24;100883.22;4994878;28;20057;-93
2023/04/14 05:47:51;;;;;;;7.60;3.72;;;;;;;5.61;80.67;100892.97;4994825;28;20077;-93
2023/04/14 05:50:17;;;;;;;11.15;4.00;;;;;;;5.71;80.25;100888.91;4995415;28;20548;-94
2023/04/14 05:52:42;;;;;;;11.88;4.47;;;;;;;5.75;80.65;100890.78;4978884;28;20529;-94
2023/04/14 05:55:08;;;;;;;9.40;4.07;;;;;;;5.84;80.60;100891.03;4995701;28;20476;-93
2023/04/14 05:57:33;;;;;;;12.88;3.80;;;;;;;6.05;80.64;100887.34;4995438;28;20042;-92
2023/04/14 05:59:59;;;;;;;7.95;3.45;;;;;;;6.21;80.15;100887.81;4994864;28;20026;-95
2023/04/14 06:02:24;;;;;;;8.82;3.92;;;;;;;6.30;79.90;100894.19;4995843;28;20045;-96
2023/04/14 06:04:50;;;;;;;9.93;3.80;;;;;;;6.40;78.95;100875.22;4979000;28;20038;-95
2023/04/14 06:07:17;;;;;;;8.55;3.45;;;;;;;6.55;78.83;100880.88;4994717;28;20379;-93
2023/04/14 06:09:45;;;;;;;9.70;3.30;;;;;;;6.75;78.49;100877.06;4994331;28;20469;-95
2023/04/14 06:12:11;;;;;;;10.18;4.00;;;;;;;6.87;80.09;100879.13;4996374;28;20042;-94
2023/04/14 06:14:37;;;;;;;10.85;3.90;;;;;;;7.03;77.83;100889.19;5002340;28;20125;-96
2023/04/14 06:17:02;;;;;;;10.40;3.83;;;;;;;7.10;78.09;100882.34;5000698;28;20462;-94
2023/04/14 06:19:28;;;;;;;9.25;3.60;;;;;;;7.12;78.19;100877.13;5000727;28;20034;-93
2023/04/14 06:21:53;;;;;;;9.20;3.75;;;;;;;7.25;77.89;100882.72;5002137;28;20037;-95
2023/04/14 06:24:19;;;;;;;8.50;3.25;;;;;;;7.37;76.57;100883.91;5004142;28;20070;-94
2023/04/14 06:26:44;;;;;;;8.25;3.65;;;;;;;7.43;76.69;100878.78;5009919;28;20069;-95
2023/04/14 06:29:10;;;;;;;8.25;3.70;;;;;;;7.63;75.79;100882.78;5008798;28;20085;-95
2023/04/14 06:31:36;;;;;;;8.15;3.67;;;;;;;7.83;76.23;100879.69;4994794;28;20039;-96
2023/04/14 06:34:01;;;;;;;10.43;4.47;;;;;;;8.06;76.54;100875.84;4993783;28;20034;-96
2023/04/14 06:36:27;;;;;;;10.88;3.90;;;;;;;8.15;74.06;100878.66;5010157;28;20536;-96
2023/04/14 06:38:53;;;;;;;8.82;3.65;;;;;;;8.27;73.97;100878.91;5010338;28;20033;-95
2023/04/14 06:41:18;;;;;;;9.20;3.35;;;;;;;8.45;73.94;100874.91;4995289;28;20355;-95
2023/04/14 06:43:44;;;;;;;9.40;3.60;;;;;;;8.62;73.25;100880.50;4995021;28;20153;-95
2023/04/14 06:46:09;;;;;;;8.07;3.97;;;;;;;8.74;72.51;100884.25;4994397;28;20062;-96
2023/04/14 06:48:34;;;;;;;9.05;3.65;;;;;;;8.84;71.64;100874.75;4994532;28;20478;-94
2023/04/14 06:51:00;;;;;;;11.77;4.40;;;;;;;9.00;70.68;100881.22;4993222;28;20038;-95
2023/04/14 06:53:25;;;;;;;8.48;3.53;;;;;;;9.18;71.07;100880.63;4994786;28;20112;-95
2023/04/14 06:55:57;;;;;;;11.50;4.03;;;;;;;9.28;69.35;100872.00;4994764;28;20065;-95
2023/04/14 06:58:27;;;;;;;8.95;3.38;;;;;;;9.44;69.75;100863.47;4995208;28;20030;-94
2023/04/14 07:01:00;;;;;;;7.28;3.45;;;;;;;9.67;69.12;100869.09;4994222;28;20034;-94
2023/04/14 07:03:27;;;;;;;11.93;3.60;;;;;;;9.82;67.50;100860.53;4994844;28;20066;-95
2023/04/14 07:05:53;;;;;;;8.35;3.55;;;;;;;9.94;67.10;100859.81;4994567;28;20034;-93
2023/04/14 07:08:24;;;;;;;10.07;3.65;;;;;;;10.06;67.55;100861.72;4994496;28;20356;-94
2023/04/14 07:10:58;;;;;;;11.50;3.63;;;;;;;10.12;68.60;100846.84;4993699;28;20109;-92
2023/04/14 07:13:26;;;;;;;9.85;3.70;;;;;;;10.31;67.71;100850.63;4995317;28;20037;-92
2023/04/14 07:15:58;;;;;;;8.35;3.95;;;;;;;10.52;65.88;100868.47;5011792;28;20088;-91
2023/04/14 07:18:23;;;;;;;9.60;4.10;;;;;;;10.56;64.44;100851.78;4995872;28;20065;-92
2023/04/14 07:20:51;;;;;;;10.73;3.90;;;;;;;10.65;64.91;100854.53;4978589;28;20502;-92
2023/04/14 07:23:26;;;;;;;8.40;3.80;;;;;;;10.87;64.62;100847.69;4996440;28;20038;-93
2023/04/14 07:25:59;;;;;;;8.00;3.65;;;;;;;11.08;63.30;100852.28;5009562;28;20054;-92
2023/04/14 07:28:26;;;;;;;9.00;3.33;;;;;;;11.20;63.06;100836.53;4994352;28;20033;-93
2023/04/14 07:30:54;;;;;;;8.23;3.70;;;;;;;11.29;62.88;100833.97;4993903;28;20130;-91
2023/04/14 07:33:21;;;;;;;11.02;3.60;;;;;;;11.47;60.41;100842.91;4993870;28;20043;-90
2023/04/14 07:35:49;;;;;;;8.00;3.35;;;;;;;11.52;61.20;100822.66;4994232;28;20092;-89
2023/04/14 07:38:26;;;;;;;;;;;;;;;;;;;;;
2023/04/14 07:40:51;;;;;;;8.93;3.38;;;;;;;11.76;61.01;100822.78;4994304;28;20033;-92
2023/04/14 07:43:17;;;;;;;7.15;3.20;;;;;;;11.66;58.63;100814.81;4994380;28;20140;-93
2023/04/14 07:45:45;;;;;;;10.05;3.42;;;;;;;11.86;58.95;100814.94;4994482;28;20374;-93
2023/04/14 07:48:18;;;;;;;9.45;3.47;;;;;;;11.97;60.29;100805.28;4994271;28;20030;-93
2023/04/14 07:50:47;;;;;;;7.40;3.00;;;;;;;12.18;59.03;100810.66;4992732;28;20035;-94
2023/04/14 07:53:12;;;;;;;7.53;3.38;;;;;;;12.68;60.01;100822.31;4993929;28;20026;-94
2023/04/14 07:55:41;;;;;;;8.30;3.30;;;;;;;12.83;56.26;100805.50;4994282;28;20474;-94
2023/04/14 07:58:15;;;;;;;10.07;3.60;;;;;;;12.93;56.94;100797.56;4993935;28;20088;-92
2023/04/14 08:00:45;;;;;;;6.93;3.10;;;;;;;12.94;54.25;100807.28;4994233;28;20045;-93
2023/04/14 08:03:12;;;;;;;6.68;3.10;;;;;;;13.01;54.93;100798.44;4994076;28;20034;-93
2023/04/14 08:05:37;;;;;;;6.38;2.83;;;;;;;13.15;54.03;100809.06;4994751;28;20053;-93
2023/04/14 08:08:11;;;;;;;6.53;2.95;;;;;;;13.23;54.65;100801.09;4993951;28;20459;-94
2023/04/14 08:10:40;;;;;;;6.35;2.80;;;;;;;13.18;52.96;100819.66;4992626;28;20073;-95
2023/04/14 08:13:05;;;;;;;5.55;2.33;;;;;;;13.23;52.27;100825.00;4995588;28;20489;-94
2023/04/14 08:15:31;;;;;;;8.15;2.60;;;;;;;13.18;52.94;100824.09;4997223;28;20030;-93
2023/04/14 08:17:59;;;;;;;7.25;2.65;;;;;;;13.14;54.09;100817.88;4997070;28;20033;-93
2023/04/14 08:20:27;;;;;;;6.05;2.70;;;;;;;13.23;53.91;100823.25;4997478;28;20517;-94
2023/04/14 08:22:55;;;;;;;7.60;2.85;;;;;;;13.08;53.55;100820.56;4997941;28;20030;-93
2023/04/14 08:25:33;;;;;;;11.05;2.70;;;;;;;12.94;53.67;100827.63;4998891;28;20520;-93
2023/04/14 08:27:58;;;;;;;6.40;2.67;;;;;;;13.15;54.82;100824.09;5000647;28;20043;-94
2023/04/14 08:30:25;;;;;;;7.90;2.72;;;;;;;13.18;53.10;100801.09;4997916;28;20050;-94
2023/04/14 08:32:50;;;;;;;5.78;2.60;;;;;;;13.44;51.94;100809.03;4999562;28;20026;-94
2023/04/14 08:35:20;;;;;;;4.63;2.42;;;;;;;13.45;51.26;100829.41;5006468;28;20037;-94
2023/04/14 08:37:48;;;;;;;7.13;2.60;;;;;;;13.36;51.74;100815.25;5007011;28;20065;-95
2023/04/14 08:40:18;;;;;;;6.28;2.33;;;;;;;13.40;50.65;100806.41;5009972;28;20049;-96
2023/04/14 08:42:44;;;;;;;6.35;2.55;;;;;;;13.57;50.68;100817.88;5008263;28;20030;-96
2023/04/14 08:45:11;;;;;;;5.97;2.10;;;;;;;13.58;51.17;100805.50;5007985;28;20050;-93
2023/04/14 08:47:42;;;;;;;6.30;2.35;;;;;;;13.86;51.02;100808.97;5005704;28;20054;-96
2023/04/14 08:50:23;;;;;;;4.70;2.22;;;;;;;14.15;50.00;100823.00;4999798;28;20039;-90
2023/04/14 08:52:57;;;;;;;5.78;2.50;;;;;;;14.17;49.25;100821.22;4996147;28;20031;-95
2023/04/14 08:55:29;;;;;;;6.07;2.35;;;;;;;14.19;49.66;100811.47;4997095;28;20458;-95
2023/04/14 08:58:01;;;;;;;5.07;2.40;;;;;;;14.36;48.67;100797.22;4995608;28;20085;-94
2023/04/14 09:00:30;;;;;;;6.22;2.50;;;;;;;14.57;48.12;100817.53;5012224;28;20034;-94
2023/04/14 09:02:58;;;;;;;4.95;2.20;;;;;;;14.57;47.43;100807.78;4996081;28;20390;-96
2023/04/14 09:05:24;;;;;;;8.90;2.58;;;;;;;14.48;47.66;100799.81;4995998;28;20431;-96
2023/04/14 09:08:17;;;;;;;6.78;2.47;;;;;;;14.62;48.71;100803.31;4996028;28;20042;-93
2023/04/14 09:10:45;;;;;;;5.15;2.40;;;;;;;14.47;47.40;100803.34;4996361;28;20467;-96
2023/04/14 09:13:15;;;;;;;6.68;2.60;;;;;;;14.50;49.47;100784.75;4995152;28;20038;-95
2023/04/14 09:15:44;;;;;;;5.20;2.25;;;;;;;14.50;48.01;100798.94;4995480;28;20037;-96
2023/04/14 09:18:12;;;;;;;6.47;2.10;;;;;;;14.48;49.06;100791.84;4995172;28;20022;-95
2023/04/14 09:20:52;;;;;;;6.50;2.28;;;;;;;14.46;46.13;100812.22;4995910;28;20045;-95
2023/04/14 09:23:27;;;;;;;5.47;1.95;;;;;;;14.20;47.07;100799.94;4996181;28;20107;-96
2023/04/14 09:26:02;;;;;;;5.60;2.38;;;;;;;14.11;48.27;100807.09;4995402;28;20065;-95
2023/04/14 09:28:50;;;;;;;;;;;;;;;;;;;;;
2023/04/14 09:31:21;;;;;;;8.15;2.60;;;;;;;13.40;48.59;100793.13;4996871;28;20031;-96
2023/04/14 09:33:49;;;;;;;6.07;2.20;;;;;;;13.20;50.81;100788.72;4995569;28;20047;-94
2023/04/14 09:36:23;;;;;;;4.90;2.00;;;;;;;13.59;50.40;100801.97;4997145;28;20026;-88
2023/04/14 09:38:52;;;;;;;6.35;2.50;;;;;;;13.85;48.91;100775.31;4996014;28;20030;-93
2023/04/14 09:41:27;;;;;;;6.15;2.38;;;;;;;14.00;48.75;100797.41;4995621;28;20022;-94
2023/04/14 09:43:57;;;;;;;8.38;2.50;;;;;;;14.18;48.01;100776.94;4995222;28;20379;-95
2023/04/14 09:46:35;;;;;;;;;;;;;;;;;;;;;
2023/04/14 09:49:06;;;;;;;5.85;2.30;;;;;;;14.22;47.50;100768.06;5003968;28;20113;-93
2023/04/14 09:51:35;;;;;;;5.97;2.42;;;;;;;14.57;50.28;100785.63;5009868;28;20026;-93
2023/04/14 09:54:04;;;;;;;6.15;2.40;;;;;;;14.40;47.86;100759.97;5004708;28;20036;-92
2023/04/14 09:56:32;;;;;;;6.10;2.28;;;;;;;14.72;46.92;100769.53;4997128;28;20038;-93
2023/04/14 09:58:59;;;;;;;7.22;2.10;;;;;;;15.17;46.30;100767.41;4999179;28;20073;-93
2023/04/14 10:01:36;;;;;;;8.95;2.50;;;;;;;15.28;45.17;100768.16;4998450;28;20030;-95
2023/04/14 10:04:21;;;;;;;5.15;2.20;;;;;;;15.37;45.14;100768.06;4995259;28;20022;-95
2023/04/14 10:06:57;;;;;;;7.70;2.55;;;;;;;15.58;45.03;100780.28;4995709;28;20034;-95
2023/04/14 10:09:26;;;;;;;6.90;2.30;;;;;;;15.51;44.21;100766.16;4995301;28;20516;-93
2023/04/14 10:12:10;;;;;;;8.07;2.47;;;;;;;15.73;44.55;100785.47;4995059;28;20034;-94
2023/04/14 10:14:38;;;;;;;7.10;2.30;;;;;;;15.85;42.56;100771.13;4996003;28;20030;-93
2023/04/14 10:17:07;;;;;;;9.02;2.30;;;;;;;15.90;43.27;100755.09;4995353;28;20052;-93
2023/04/14 10:19:34;;;;;;;11.43;2.33;;;;;;;16.03;44.26;100752.25;4994171;28;20035;-93
2023/04/14 10:21:59;;;;;;;6.63;2.50;;;;;;;15.84;41.84;100748.03;4995827;28;20030;-92
2023/04/14 10:24:35;;;;;;;;;;;;;;;;;;;;;
2023/04/14 10:27:02;;;;;;;4.32;1.83;;;;;;;16.07;43.16;100731.75;4996173;28;20056;-92
2023/04/14 10:29:29;;;;;;;5.63;2.20;;;;;;;16.09;43.03;100737.06;4995368;28;20027;-93
2023/04/14 10:32:04;;;;;;;8.75;2.50;;;;;;;16.09;43.11;100737.94;4995368;28;20030;-93
2023/04/14 10:34:40;;;;;;;4.43;2.40;;;;;;;15.63;42.81;100729.63;4994958;28;20038;-92
2023/04/14 10:37:17;;;;;;;7.20;2.30;;;;;;;15.34;43.22;100724.63;4994542;28;20154;-93
2023/04/14 10:39:55;;;;;;;5.30;2.33;;;;;;;15.38;44.79;100742.34;5010740;28;20455;-92
2023/04/14 10:42:23;;;;;;;5.07;2.00;;;;;;;15.69;43.69;100730.47;4995382;28;20034;-92
2023/04/14 10:45:21;;;;;;;5.85;2.20;;;;;;;16.25;42.75;100746.63;4994799;28;20038;-93
2023/04/14 10:47:48;;;;;;;5.28;1.95;;;;;;;16.46;41.70;100727.63;4951441;28;20049;-92
2023/04/14 10:50:16;;;;;;;9.07;2.42;;;;;;;16.41;41.61;100729.50;4994780;28;20034;-92
2023/04/14 10:52:54;;;;;;;5.18;2.08;;;;;;;16.18;42.88;100734.25;4993375;28;20058;-92
2023/04/14 10:55:26;;;;;;;9.57;2.30;;;;;;;16.27;41.99;100723.47;4993198;28;20032;-93
2023/04/14 10:58:02;;;;;;;8.20;2.90;;;;;;;16.69;41.47;100716.59;4994610;28;20030;-92
2023/04/14 11:00:30;;;;;;;7.10;2.30;;;;;;;16.84;40.62;100707.50;5002293;28;20035;-92
2023/04/14 11:03:04;;;;;;;6.53;2.35;;;;;;;16.87;39.71;100722.56;5008205;28;20041;-92
2023/04/14 11:05:34;;;;;;;4.50;1.85;;;;;;;16.92;39.89;100715.38;5007260;28;20134;-92
2023/04/14 11:08:10;;;;;;;5.53;2.10;;;;;;;16.99;42.09;100719.69;5003299;28;20069;-92
2023/04/14 11:10:36;;;;;;;4.95;2.22;;;;;;;16.57;39.72;100707.91;4995467;28;20037;-92
2023/04/14 11:13:08;;;;;;;6.07;2.30;;;;;;;16.57;41.12;100716.78;4993484;28;20030;-92
2023/04/14 11:15:45;;;;;;;6.68;2.30;;;;;;;16.46;40.32;100732.09;4994627;28;20033;-93
2023/04/14 11:18:15;;;;;;;6.75;2.38;;;;;;;16.59;41.41;100698.09;4994166;28;20018;-93
2023/04/14 11:20:41;;;;;;;7.55;2.20;;;;;;;16.95;38.99;100704.63;5010056;28;20093;-92
2023/04/14 11:23:08;;;;;;;6.25;2.15;;;;;;;17.05;41.17;100708.03;4994535;28;20035;-93
2023/04/14 11:25:33;;;;;;;5.20;2.10;;;;;;;17.00;38.95;100710.75;4994224;28;20085;-93
2023/04/14 11:28:02;;;;;;;6.20;2.33;;;;;;;16.72;38.49;100700.56;4993729;28;20116;-92
2023/04/14 11:30:28;;;;;;;4.72;2.20;;;;;;;16.45;38.70;100696.53;4994177;28;20038;-92
2023/04/14 11:32:56;;;;;;;6.93;2.42;;;;;;;16.40;40.79;100695.75;4994118;28;20037;-93
2023/04/14 11:35:30;;;;;;;6.07;2.20;;;;;;;16.30;41.23;100699.44;4994425;28;20066;-92
2023/04/14 11:37:59;;;;;;;3.92;2.00;;;;;;;16.11;40.14;100704.16;4993116;28;20113;-93
2023/04/14 11:40:26;;;;;;;4.72;2.10;;;;;;;16.19;38.48;100693.41;4993116;28;20389;-92
2023/04/14 11:42:54;;;;;;;5.93;2.30;;;;;;;16.34;39.03;100687.81;4994757;28;20039;-91